createdAt,value
2023-07-31T00:03:07.133Z,0.88
2023-07-31T00:08:08.643Z,0.90
2023-07-31T00:13:10.115Z,1.02
2023-07-31T00:18:12.066Z,0.85
2023-07-31T00:23:13.532Z,1.45
2023-07-31T00:28:15.017Z,1.50
2023-07-31T00:33:16.470Z,0.93
2023-07-31T00:38:17.994Z,1.40
2023-07-31T00:43:19.956Z,1.25
2023-07-31T00:48:21.807Z,1.25
2023-07-31T00:53:24.028Z,0.93
2023-07-31T00:58:25.599Z,1.00
2023-07-31T01:03:27.189Z,1.17
2023-07-31T01:08:33.875Z,1.13
2023-07-31T01:13:35.350Z,1.05
2023-07-31T01:18:36.780Z,1.50
2023-07-31T01:23:38.177Z,1.50
2023-07-31T01:28:51.587Z,1.70
2023-07-31T01:33:55.145Z,2.00
2023-07-31T01:39:00.404Z,2.50
2023-07-31T01:44:01.873Z,2.22
2023-07-31T01:49:03.374Z,2.25
2023-07-31T01:54:04.887Z,2.67
2023-07-31T01:59:06.416Z,2.50
2023-07-31T02:04:07.855Z,2.38
2023-07-31T02:09:09.308Z,3.17
2023-07-31T02:14:10.710Z,2.75
2023-07-31T02:19:12.144Z,3.40
2023-07-31T02:24:13.548Z,2.58
2023-07-31T02:29:14.981Z,2.67
2023-07-31T02:34:16.411Z,2.65
2023-07-31T02:39:17.956Z,3.38
2023-07-31T02:44:19.382Z,3.28
2023-07-31T02:49:20.797Z,2.95
2023-07-31T02:54:22.845Z,3.03
2023-07-31T02:59:24.359Z,3.47
2023-07-31T03:04:25.813Z,4.55
2023-07-31T03:09:27.322Z,4.40
2023-07-31T03:14:28.866Z,4.18
2023-07-31T03:19:31.878Z,4.55
2023-07-31T03:24:33.572Z,4.30
2023-07-31T03:29:34.991Z,4.78
2023-07-31T03:34:36.432Z,4.55
2023-07-31T03:39:37.846Z,4.32
2023-07-31T03:44:39.303Z,4.72
2023-07-31T03:49:40.856Z,4.57
2023-07-31T03:54:42.385Z,4.45
2023-07-31T03:59:43.814Z,4.78
2023-07-31T04:04:45.281Z,4.18
2023-07-31T04:09:46.760Z,4.50
2023-07-31T04:14:48.244Z,4.07
2023-07-31T04:19:49.850Z,3.88
2023-07-31T04:24:51.281Z,4.07
2023-07-31T04:29:52.806Z,4.20
2023-07-31T04:34:54.287Z,4.50
2023-07-31T04:39:55.809Z,5.50
2023-07-31T04:44:57.260Z,4.55
2023-07-31T04:49:58.670Z,4.43
2023-07-31T04:55:00.107Z,3.50
2023-07-31T05:00:01.566Z,4.40
2023-07-31T05:05:03.094Z,4.53
2023-07-31T05:10:04.824Z,3.92
2023-07-31T05:15:06.561Z,3.67
2023-07-31T05:20:08.320Z,3.78
2023-07-31T05:25:10.006Z,4.20
2023-07-31T05:30:11.498Z,3.50
2023-07-31T05:35:13.035Z,2.78
2023-07-31T05:40:15.171Z,2.33
2023-07-31T05:45:16.586Z,2.17
2023-07-31T05:50:18.006Z,2.25
2023-07-31T05:55:19.602Z,1.80
2023-07-31T06:00:21.910Z,2.10
2023-07-31T06:05:23.410Z,1.55
2023-07-31T06:10:25.033Z,1.60
2023-07-31T06:15:26.553Z,1.40
2023-07-31T06:20:28.057Z,1.45
2023-07-31T06:25:29.602Z,0.80
2023-07-31T06:30:31.092Z,0.90
2023-07-31T06:35:32.529Z,0.90
2023-07-31T06:40:34.286Z,0.90
2023-07-31T06:45:36.213Z,1.10
2023-07-31T06:50:38.132Z,0.77
2023-07-31T06:55:39.642Z,1.15
2023-07-31T07:00:41.072Z,1.30
2023-07-31T07:05:43.146Z,1.33
2023-07-31T07:10:45.006Z,1.20
2023-07-31T07:15:50.256Z,1.20
2023-07-31T07:20:52.292Z,1.35
2023-07-31T07:25:53.814Z,1.27
2023-07-31T07:30:55.433Z,1.60
2023-07-31T07:36:00.647Z,1.60
2023-07-31T07:41:02.116Z,1.20
2023-07-31T07:46:03.642Z,1.75
2023-07-31T07:51:05.358Z,1.95
2023-07-31T07:56:06.778Z,1.33
2023-07-31T08:01:08.349Z,1.25
2023-07-31T08:06:10.584Z,1.17
2023-07-31T08:11:12.127Z,1.00
2023-07-31T08:16:13.676Z,1.45
2023-07-31T08:21:15.180Z,0.90
2023-07-31T08:26:20.225Z,1.25
2023-07-31T08:31:21.774Z,1.05
2023-07-31T08:36:23.444Z,1.40
2023-07-31T08:41:25.265Z,1.75
2023-07-31T08:46:26.929Z,1.38
2023-07-31T08:51:28.687Z,1.30
2023-07-31T08:56:30.323Z,1.20
2023-07-31T09:01:34.053Z,1.50
2023-07-31T09:06:35.892Z,1.38
2023-07-31T09:11:37.635Z,1.75
2023-07-31T09:16:52.910Z,1.42
2023-07-31T09:21:54.448Z,1.85
2023-07-31T09:27:00.007Z,1.20
2023-07-31T09:32:01.581Z,1.25
2023-07-31T09:37:03.762Z,1.60
2023-07-31T09:42:05.447Z,1.70
2023-07-31T09:47:06.966Z,1.67
2023-07-31T09:52:12.902Z,1.80
2023-07-31T09:57:14.619Z,1.60
2023-07-31T10:02:17.983Z,1.40
2023-07-31T10:07:20.270Z,1.77
2023-07-31T10:12:23.776Z,1.70
2023-07-31T10:17:25.909Z,2.60
2023-07-31T10:22:27.639Z,2.22
2023-07-31T10:27:29.318Z,2.13
2023-07-31T10:32:31.231Z,2.13
2023-07-31T10:37:32.667Z,2.15
2023-07-31T10:42:38.329Z,1.90
2023-07-31T10:47:40.461Z,1.70
2023-07-31T10:52:45.005Z,1.50
2023-07-31T10:57:48.483Z,1.60
2023-07-31T11:03:09.939Z,2.08
2023-07-31T11:08:31.913Z,2.60
2023-07-31T11:13:34.707Z,2.38
2023-07-31T11:18:36.327Z,2.63
2023-07-31T11:23:38.028Z,2.22
2023-07-31T11:28:39.740Z,1.73
2023-07-31T11:33:41.306Z,1.80
2023-07-31T11:38:42.806Z,2.38
2023-07-31T11:43:44.354Z,1.80
2023-07-31T11:48:45.875Z,1.80
2023-07-31T11:53:50.475Z,2.20
2023-07-31T11:58:54.595Z,1.80
2023-07-31T12:03:56.946Z,2.20
2023-07-31T12:09:05.089Z,2.25
2023-07-31T12:14:06.780Z,2.50
2023-07-31T12:19:08.218Z,2.97
2023-07-31T12:24:09.746Z,3.20
2023-07-31T12:29:11.200Z,2.38
2023-07-31T12:34:19.816Z,3.10
2023-07-31T12:39:21.676Z,2.72
2023-07-31T12:44:23.131Z,2.40
2023-07-31T12:49:24.688Z,3.03
2023-07-31T12:54:26.233Z,2.85
2023-07-31T12:59:27.691Z,3.40
2023-07-31T13:04:29.364Z,2.95
2023-07-31T13:09:30.819Z,2.50
2023-07-31T13:14:32.714Z,2.63
2023-07-31T13:19:34.282Z,2.40
2023-07-31T13:24:35.708Z,2.95
2023-07-31T13:29:37.191Z,2.42
2023-07-31T13:34:39.073Z,2.42
2023-07-31T13:39:41.172Z,2.30
2023-07-31T13:44:43.223Z,2.45
2023-07-31T13:49:44.698Z,2.00
2023-07-31T13:54:46.139Z,2.67
2023-07-31T13:59:47.603Z,2.35
2023-07-31T14:04:49.104Z,2.17
2023-07-31T14:09:50.564Z,1.75
2023-07-31T14:14:51.999Z,2.35
2023-07-31T14:19:53.739Z,1.80
2023-07-31T14:24:55.280Z,1.92
2023-07-31T14:29:56.868Z,1.98
2023-07-31T14:34:58.402Z,2.15
2023-07-31T14:40:00.080Z,1.85
2023-07-31T14:45:01.681Z,1.85
2023-07-31T14:50:04.053Z,2.15
2023-07-31T14:55:06.000Z,1.90
2023-07-31T15:00:08.781Z,2.10
2023-07-31T15:05:10.477Z,1.98
2023-07-31T15:10:11.938Z,2.15
2023-07-31T15:15:13.507Z,2.17
2023-07-31T15:20:14.992Z,2.50
2023-07-31T15:25:16.589Z,2.22
2023-07-31T15:30:18.106Z,2.28
2023-07-31T15:35:22.123Z,2.40
2023-07-31T15:40:24.097Z,2.20
2023-07-31T15:45:25.601Z,2.70
2023-07-31T15:50:27.214Z,2.30
2023-07-31T15:55:28.729Z,2.30
2023-07-31T16:00:30.388Z,2.25
2023-07-31T16:05:31.944Z,2.65
2023-07-31T16:10:35.184Z,2.30
2023-07-31T16:15:36.879Z,1.98
2023-07-31T16:20:38.481Z,2.15
2023-07-31T16:25:39.982Z,2.10
2023-07-31T16:30:41.438Z,2.13
2023-07-31T16:35:42.892Z,2.40
2023-07-31T16:40:45.250Z,2.10
2023-07-31T16:45:46.935Z,2.33
2023-07-31T16:50:48.690Z,1.88
2023-07-31T16:55:50.173Z,2.28
2023-07-31T17:00:51.729Z,2.75
2023-07-31T17:05:53.258Z,2.22
2023-07-31T17:10:54.762Z,2.60
2023-07-31T17:15:56.298Z,2.45
2023-07-31T17:20:57.879Z,2.47
2023-07-31T17:25:59.360Z,2.30
2023-07-31T17:31:01.200Z,2.22
2023-07-31T17:36:03.136Z,1.88
2023-07-31T17:41:04.754Z,2.28
2023-07-31T17:46:06.352Z,2.17
2023-07-31T17:51:07.859Z,2.45
2023-07-31T17:56:09.608Z,2.97
2023-07-31T18:01:11.341Z,2.08
2023-07-31T18:06:12.900Z,2.60
2023-07-31T18:11:15.350Z,2.05
2023-07-31T18:16:16.925Z,2.75
2023-07-31T18:21:18.503Z,2.35
2023-07-31T18:26:19.985Z,2.40
2023-07-31T18:31:21.628Z,2.13
2023-07-31T18:36:23.152Z,1.85
2023-07-31T18:41:24.763Z,2.45
2023-07-31T18:46:26.317Z,2.00
2023-07-31T18:51:27.885Z,1.85
2023-07-31T18:56:29.568Z,2.38
2023-07-31T19:01:31.095Z,1.60
2023-07-31T19:06:36.086Z,2.00
2023-07-31T19:11:38.006Z,2.10
2023-07-31T19:16:39.870Z,2.38
2023-07-31T19:21:41.872Z,2.33
2023-07-31T19:26:44.623Z,2.92
2023-07-31T19:31:46.214Z,2.03
2023-07-31T19:36:49.255Z,2.30
2023-07-31T19:41:50.788Z,2.70
2023-07-31T19:46:52.218Z,2.38
2023-07-31T19:51:53.746Z,2.28
2023-07-31T19:56:55.586Z,2.47
2023-07-31T20:01:57.953Z,2.20
2023-07-31T20:06:59.545Z,2.80
2023-07-31T20:12:00.988Z,2.85
2023-07-31T20:17:02.439Z,2.67
2023-07-31T20:22:04.009Z,3.42
2023-07-31T20:27:05.674Z,2.80
2023-07-31T20:32:07.915Z,2.50
2023-07-31T20:37:09.417Z,2.80
2023-07-31T20:42:15.197Z,2.75
2023-07-31T20:47:16.744Z,3.22
2023-07-31T20:52:18.271Z,3.55
2023-07-31T20:57:19.865Z,2.80
2023-07-31T21:02:21.447Z,3.10
2023-07-31T21:07:23.471Z,3.40
2023-07-31T21:12:24.952Z,2.88
2023-07-31T21:17:26.536Z,2.78
2023-07-31T21:22:28.118Z,3.20
2023-07-31T21:27:30.375Z,3.03
2023-07-31T21:32:31.927Z,2.92
2023-07-31T21:37:33.579Z,2.88
2023-07-31T21:42:35.105Z,3.30
2023-07-31T21:47:37.585Z,3.08
2023-07-31T21:52:40.397Z,3.35
2023-07-31T21:57:41.921Z,3.40
2023-07-31T22:02:43.462Z,3.75
2023-07-31T22:07:45.468Z,3.40
2023-07-31T22:12:47.003Z,3.75
2023-07-31T22:17:48.557Z,3.45
2023-07-31T22:22:50.039Z,3.92
2023-07-31T22:27:52.036Z,3.25
2023-07-31T22:32:53.572Z,3.20
2023-07-31T22:37:55.116Z,3.80
2023-07-31T22:42:57.950Z,3.75
2023-07-31T22:47:59.721Z,3.75
2023-07-31T22:53:01.266Z,3.55
2023-07-31T22:58:02.940Z,3.15
2023-07-31T23:03:04.597Z,4.28
2023-07-31T23:08:06.139Z,3.67
2023-07-31T23:13:07.571Z,3.80
2023-07-31T23:18:09.792Z,3.55
2023-07-31T23:23:11.459Z,3.13
2023-07-31T23:28:13.341Z,2.92
2023-07-31T23:33:14.899Z,3.20
2023-07-31T23:38:16.353Z,3.63
2023-07-31T23:43:19.000Z,3.28
2023-07-31T23:48:20.520Z,3.70
2023-07-31T23:53:22.227Z,3.33
2023-07-31T23:58:23.953Z,3.25
